Hoffman, Minnesota
Current Conditions -  °F | °C
As of 1:53 PM on Wednesday 26 Nov 2014 (Local Time) from KAXN Reporting Station
Broken Clouds Broken Clouds  
Wind Chill:   Ceiling: 11000
Heat Index: 18°   Visibility: 10mi
Dew Point:   Wind: 9mph
Humidity: 68%   Direction: 330°NNW
Pressure: 30.24"   Gusts: 18mph
Location:  45.83°N, 95.79°W
Report Text: KAXN 261953Z AUTO 33008G16KT 10SM SCT060 SCT075 BKN110 M08/M13 A3024 RMK AO2 SLP270 T10781128
Loading
Personal Weather Stations






























Interactive Weather Map New forecast layout! Learn more

10-Day Weather Forecast

Advertisements
Track Severe Weather on mobile